Terminal Aerodrome Forecast
Issued by NWS Newport/Morehead City, NC

Home | Current Version | Previous Version | Text Only | Print | Product List | Glossary On
Versions: 1 2 3 4 5 6 7 8 9 10 11 12 13 14 15 16 17 18
000
FTUS42 KMHX 230528 AAA
TAFEWN
TAF AMD
KEWN 230528Z 2305/2406 00000KT 4SM BR SCT002
      TEMPO 2306/2309 1SM BR VV002
     FM231300 03007KT P6SM SCT050
     FM240000 09005KT P6SM SKC=

USA.gov is the U.S. government's official web portal to all federal, state and local government web resources and services.